Terminal Aerodrome Forecast
Issued by NWS Chicago, IL

Home | Current Version | Previous Version | Text Only | Print | Product List | Glossary Off
Versions: 1 2 3 4 5 6 7 8 9 10 11 12 13 14 15 16 17 18 19 20 21 22 23 24 25

000
FTUS43 KLOT 151623 AAA
TAFRFD
TAF AMD
KRFD 151623Z 1516/1612 VRB04KT 2SM BR BKN005
     FM152000 32005KT 4SM BR OVC006
     FM152300 33008KT 5SM BR SCT010 BKN030
     FM160400 32014G19KT P6SM BKN015 OVC025=

USA.gov is the U.S. government's official web portal to all federal, state and local government web resources and services.